createdAt,value
2022-09-26T00:00:36.073Z,1.20
2022-09-26T00:03:06.293Z,0.90
2022-09-26T00:05:37.244Z,1.20
2022-09-26T00:08:09.669Z,1.60
2022-09-26T00:10:39.825Z,1.40
2022-09-26T00:13:10.376Z,1.10
2022-09-26T00:15:40.548Z,1.40
2022-09-26T00:18:10.940Z,1.15
2022-09-26T00:20:41.520Z,1.30
2022-09-26T00:23:11.632Z,1.00
2022-09-26T00:25:51.955Z,1.10
2022-09-26T00:28:23.145Z,1.25
2022-09-26T00:30:55.315Z,0.95
2022-09-26T00:33:26.192Z,1.17
2022-09-26T00:35:58.106Z,1.00
2022-09-26T00:38:31.164Z,1.30
2022-09-26T00:41:02.101Z,0.75
2022-09-26T00:43:42.100Z,0.93
2022-09-26T00:46:42.866Z,0.85
2022-09-26T00:49:39.052Z,0.73
2022-09-26T00:52:18.427Z,0.85
2022-09-26T00:54:54.163Z,0.90
2022-09-26T00:57:32.429Z,0.63
2022-09-26T01:00:07.559Z,1.00
2022-09-26T01:02:38.210Z,0.80
2022-09-26T01:05:09.430Z,0.90
2022-09-26T01:07:40.275Z,0.88
2022-09-26T01:10:11.907Z,1.08
2022-09-26T01:12:42.328Z,1.00
2022-09-26T01:15:13.591Z,1.15
2022-09-26T01:17:46.892Z,0.80
2022-09-26T01:20:32.348Z,0.60
2022-09-26T01:23:18.008Z,1.33
2022-09-26T01:26:06.279Z,0.80
2022-09-26T01:28:54.840Z,0.90
2022-09-26T01:32:14.688Z,0.90
2022-09-26T01:35:29.950Z,1.00
2022-09-26T01:38:27.369Z,0.63
2022-09-26T01:41:18.616Z,0.70
2022-09-26T01:43:48.717Z,0.60
2022-09-26T01:46:39.255Z,0.70
2022-09-26T01:49:43.300Z,0.80
2022-09-26T01:52:27.463Z,1.70
2022-09-26T01:55:20.022Z,1.02
2022-09-26T01:58:17.364Z,0.70
2022-09-26T02:00:51.701Z,0.40
2022-09-26T02:03:25.930Z,0.73
2022-09-26T02:06:05.410Z,1.10
2022-09-26T02:08:44.045Z,0.60
2022-09-26T02:11:21.418Z,1.00
2022-09-26T02:14:00.319Z,0.70
2022-09-26T02:16:56.600Z,0.60
2022-09-26T02:19:41.610Z,1.73
2022-09-26T02:22:12.061Z,0.90
2022-09-26T02:24:42.314Z,0.82
2022-09-26T02:27:12.534Z,0.90
2022-09-26T02:29:43.126Z,0.73
2022-09-26T02:32:18.698Z,0.75
2022-09-26T02:34:50.745Z,0.57
2022-09-26T02:37:23.222Z,0.52
2022-09-26T02:39:54.961Z,0.65
2022-09-26T02:42:51.037Z,0.65
2022-09-26T02:45:35.149Z,0.98
2022-09-26T02:48:28.031Z,0.60
2022-09-26T02:51:13.809Z,0.77
2022-09-26T02:54:13.944Z,0.55
2022-09-26T02:57:10.745Z,0.70
2022-09-26T02:59:51.850Z,0.80
2022-09-26T03:02:37.902Z,0.50
2022-09-26T03:05:17.497Z,0.57
2022-09-26T03:08:03.274Z,0.40
2022-09-26T03:10:34.585Z,0.55
2022-09-26T03:13:14.471Z,0.70
2022-09-26T03:15:49.168Z,0.60
2022-09-26T03:18:25.870Z,0.80
2022-09-26T03:20:56.965Z,0.63
2022-09-26T03:23:28.641Z,0.57
2022-09-26T03:26:27.805Z,0.50
2022-09-26T03:28:58.481Z,0.60
2022-09-26T03:31:28.805Z,0.77
2022-09-26T03:33:58.988Z,0.80
2022-09-26T03:36:30.260Z,0.80
2022-09-26T03:39:00.429Z,0.68
2022-09-26T03:41:30.684Z,0.65
2022-09-26T03:44:01.238Z,0.70
2022-09-26T03:46:32.387Z,1.25
2022-09-26T03:49:04.237Z,0.57
2022-09-26T03:51:35.220Z,0.68
2022-09-26T03:54:06.499Z,0.60
2022-09-26T03:56:36.970Z,0.57
2022-09-26T03:59:07.706Z,0.60
2022-09-26T04:01:37.956Z,0.50
2022-09-26T04:04:08.452Z,0.57
2022-09-26T04:06:39.890Z,0.40
2022-09-26T04:09:16.821Z,0.50
2022-09-26T04:11:47.991Z,1.08
2022-09-26T04:14:21.900Z,0.47
2022-09-26T04:16:55.027Z,0.45
2022-09-26T04:19:25.535Z,0.95
2022-09-26T04:21:55.747Z,0.75
2022-09-26T04:24:26.078Z,0.60
2022-09-26T04:26:56.444Z,0.90
2022-09-26T04:29:27.943Z,0.70
2022-09-26T04:31:58.221Z,0.43
2022-09-26T04:34:28.423Z,0.65
2022-09-26T04:37:00.999Z,0.40
2022-09-26T04:39:31.210Z,0.63
2022-09-26T04:42:02.410Z,0.50
2022-09-26T04:44:32.561Z,0.80
2022-09-26T04:47:02.696Z,0.70
2022-09-26T04:49:32.962Z,0.90
2022-09-26T04:52:03.221Z,0.57
2022-09-26T04:54:33.569Z,0.50
2022-09-26T04:57:05.072Z,0.70
2022-09-26T04:59:36.450Z,0.47
2022-09-26T05:02:10.002Z,0.73
2022-09-26T05:04:40.182Z,0.40
2022-09-26T05:07:10.335Z,0.50
2022-09-26T05:09:40.735Z,0.63
2022-09-26T05:12:10.935Z,1.67
2022-09-26T05:14:42.798Z,0.65
2022-09-26T05:17:13.389Z,0.50
2022-09-26T05:19:45.239Z,0.50
2022-09-26T05:22:15.675Z,0.40
2022-09-26T05:25:04.353Z,0.70
2022-09-26T05:27:35.013Z,0.45
2022-09-26T05:30:05.361Z,0.88
2022-09-26T05:32:35.898Z,0.40
2022-09-26T05:35:07.263Z,0.40
2022-09-26T05:37:37.467Z,1.20
2022-09-26T05:40:26.539Z,0.40
2022-09-26T05:43:06.706Z,0.35
2022-09-26T05:45:37.588Z,0.47
2022-09-26T05:48:08.330Z,0.50
2022-09-26T05:50:41.642Z,0.52
2022-09-26T05:53:13.923Z,0.50
2022-09-26T05:55:44.802Z,0.60
2022-09-26T05:58:17.650Z,0.93
2022-09-26T06:00:49.700Z,0.50
2022-09-26T06:03:20.171Z,0.52
2022-09-26T06:05:50.814Z,1.00
2022-09-26T06:08:21.086Z,0.32
2022-09-26T06:10:51.252Z,0.50
2022-09-26T06:13:23.008Z,0.57
2022-09-26T06:15:54.273Z,0.85
2022-09-26T06:18:24.525Z,0.60
2022-09-26T06:20:56.127Z,0.40
2022-09-26T06:23:26.736Z,0.75
2022-09-26T06:25:57.498Z,0.70
2022-09-26T06:28:28.826Z,0.60
2022-09-26T06:30:59.557Z,0.57
2022-09-26T06:33:33.294Z,0.60
2022-09-26T06:36:06.797Z,0.50
2022-09-26T06:38:37.852Z,0.40
2022-09-26T06:41:09.187Z,0.57
2022-09-26T06:43:39.751Z,0.70
2022-09-26T06:46:11.213Z,0.70
2022-09-26T06:48:41.861Z,0.52
2022-09-26T06:51:16.025Z,0.70
2022-09-26T06:53:47.532Z,0.88
2022-09-26T06:56:17.864Z,0.80
2022-09-26T06:58:48.757Z,0.63
2022-09-26T07:01:20.412Z,0.60
2022-09-26T07:03:50.810Z,0.55
2022-09-26T07:06:21.815Z,1.10
2022-09-26T07:09:03.831Z,1.13
2022-09-26T07:11:56.155Z,0.93
2022-09-26T07:14:25.716Z,0.75
2022-09-26T07:16:55.955Z,1.00
2022-09-26T07:19:26.190Z,1.77
2022-09-26T07:21:56.839Z,2.20
2022-09-26T07:24:28.905Z,2.35
2022-09-26T07:26:59.867Z,3.00
2022-09-26T07:29:30.582Z,2.78
2022-09-26T07:32:02.140Z,2.55
2022-09-26T07:34:33.677Z,2.72
2022-09-26T07:37:04.416Z,2.00
2022-09-26T07:39:35.068Z,2.38
2022-09-26T07:42:05.751Z,1.65
2022-09-26T07:47:44.077Z,1.58
2022-09-26T07:50:17.404Z,2.28
2022-09-26T07:52:49.581Z,1.50
2022-09-26T07:55:22.566Z,1.52
2022-09-26T07:57:53.586Z,2.22
2022-09-26T08:00:24.941Z,1.50
2022-09-26T08:02:55.358Z,1.75
2022-09-26T08:05:27.189Z,2.05
2022-09-26T08:07:59.462Z,1.80
2022-09-26T08:10:29.674Z,1.92
2022-09-26T08:13:03.301Z,1.92
2022-09-26T08:15:33.607Z,1.77
2022-09-26T08:18:04.632Z,1.35
2022-09-26T08:20:35.966Z,1.45
2022-09-26T08:23:06.544Z,2.08
2022-09-26T08:25:37.830Z,1.40
2022-09-26T08:28:12.152Z,1.35
2022-09-26T08:30:43.380Z,1.67
2022-09-26T08:33:14.461Z,1.73
2022-09-26T08:35:44.733Z,1.50
2022-09-26T08:38:16.276Z,1.88
2022-09-26T08:40:54.969Z,1.58
2022-09-26T08:43:31.640Z,1.25
2022-09-26T08:46:36.210Z,1.20
2022-09-26T08:49:25.669Z,1.45
2022-09-26T08:51:59.130Z,1.33
2022-09-26T08:54:46.127Z,1.20
2022-09-26T08:57:36.715Z,1.33
2022-09-26T09:00:29.030Z,1.02
2022-09-26T09:03:23.620Z,1.75
2022-09-26T09:06:14.908Z,1.38
2022-09-26T09:09:03.639Z,1.20
2022-09-26T09:11:52.344Z,1.23
2022-09-26T09:14:44.061Z,0.73
2022-09-26T09:17:32.463Z,0.68
2022-09-26T09:20:13.541Z,1.00
2022-09-26T09:23:17.652Z,1.00
2022-09-26T09:25:50.779Z,0.98
2022-09-26T09:28:46.047Z,0.90
2022-09-26T09:31:18.773Z,0.80
2022-09-26T09:34:00.359Z,1.27
2022-09-26T09:36:39.808Z,0.90
2022-09-26T09:39:13.578Z,0.70
2022-09-26T09:41:57.034Z,1.35
2022-09-26T09:44:51.882Z,1.00
2022-09-26T09:47:22.969Z,0.90
2022-09-26T09:49:55.071Z,0.98
2022-09-26T09:52:28.964Z,2.97
2022-09-26T09:55:07.018Z,2.55
2022-09-26T09:57:59.763Z,1.80
2022-09-26T10:00:30.609Z,1.90
2022-09-26T10:03:06.904Z,1.60
2022-09-26T10:05:50.309Z,1.50
2022-09-26T10:08:38.360Z,1.67
2022-09-26T10:11:43.747Z,2.17
2022-09-26T10:14:30.383Z,1.58
2022-09-26T10:17:12.859Z,2.30
2022-09-26T10:19:46.665Z,1.40
2022-09-26T10:22:32.127Z,1.30
2022-09-26T10:25:19.278Z,0.88
2022-09-26T10:27:56.949Z,1.13
2022-09-26T10:30:32.044Z,1.10
2022-09-26T10:33:05.840Z,1.00
2022-09-26T10:35:47.617Z,1.20
2022-09-26T10:38:35.731Z,1.35
2022-09-26T10:41:06.027Z,1.40
2022-09-26T10:43:40.623Z,0.95
2022-09-26T10:46:17.395Z,1.05
2022-09-26T10:51:46.577Z,1.25
2022-09-26T10:54:25.183Z,1.30
2022-09-26T10:57:00.842Z,1.30
2022-09-26T10:59:37.822Z,1.15
2022-09-26T11:05:05.465Z,1.63
2022-09-26T11:07:41.230Z,1.35
2022-09-26T11:10:18.786Z,2.10
2022-09-26T11:13:17.751Z,1.25
2022-09-26T11:16:05.238Z,1.50
2022-09-26T11:21:36.913Z,1.90
2022-09-26T11:27:20.700Z,1.50
2022-09-26T11:30:04.239Z,1.40
2022-09-26T11:32:42.834Z,1.05
2022-09-26T11:35:19.413Z,1.00
2022-09-26T11:37:55.604Z,1.10
2022-09-26T11:40:41.006Z,1.20
2022-09-26T11:43:48.578Z,0.88
2022-09-26T11:46:47.931Z,0.90
2022-09-26T11:49:41.188Z,0.90
2022-09-26T11:52:31.435Z,1.20
2022-09-26T11:55:04.524Z,1.13
2022-09-26T11:57:50.933Z,1.25
2022-09-26T12:00:36.372Z,1.50
2022-09-26T12:03:33.033Z,1.13
2022-09-26T12:06:15.509Z,2.73
2022-09-26T12:09:06.814Z,2.50
2022-09-26T12:11:59.723Z,2.20
2022-09-26T12:14:45.266Z,1.10
2022-09-26T12:17:46.217Z,1.02
2022-09-26T12:20:34.271Z,1.00
2022-09-26T12:23:16.404Z,0.85
2022-09-26T12:26:04.734Z,1.05
2022-09-26T12:28:55.887Z,0.98
2022-09-26T12:31:59.216Z,1.25
2022-09-26T12:34:44.409Z,0.93
2022-09-26T12:37:40.894Z,1.45
2022-09-26T12:40:30.841Z,1.38
2022-09-26T12:43:34.116Z,1.60
2022-09-26T12:46:20.396Z,1.40
2022-09-26T12:49:25.205Z,1.42
2022-09-26T12:52:00.809Z,1.27
2022-09-26T12:54:42.927Z,1.52
2022-09-26T12:57:34.593Z,1.75
2022-09-26T13:00:24.240Z,1.30
2022-09-26T13:03:28.780Z,1.45
2022-09-26T13:06:34.211Z,1.33
2022-09-26T13:09:18.196Z,1.33
2022-09-26T13:11:52.385Z,1.23
2022-09-26T13:15:19.074Z,1.27
2022-09-26T13:18:19.217Z,1.27
2022-09-26T13:20:57.070Z,1.38
2022-09-26T13:23:41.229Z,1.40
2022-09-26T13:26:24.846Z,1.42
2022-09-26T13:29:16.682Z,1.80
2022-09-26T13:32:28.229Z,1.65
2022-09-26T13:35:11.120Z,1.30
2022-09-26T13:38:00.800Z,1.83
2022-09-26T13:40:53.380Z,2.10
2022-09-26T13:43:46.169Z,2.28
2022-09-26T13:46:28.584Z,2.15
2022-09-26T13:49:20.035Z,2.50
2022-09-26T13:52:04.546Z,1.50
2022-09-26T13:54:59.070Z,1.65
2022-09-26T13:58:04.758Z,2.13
2022-09-26T14:00:42.220Z,2.00
2022-09-26T14:03:20.182Z,2.20
2022-09-26T14:05:53.829Z,1.90
2022-09-26T14:08:50.068Z,2.25
2022-09-26T14:11:44.655Z,1.80
2022-09-26T14:14:20.977Z,1.40
2022-09-26T14:16:54.230Z,1.20
2022-09-26T14:19:44.605Z,1.40
2022-09-26T14:22:22.398Z,1.50
2022-09-26T14:24:56.595Z,1.48
2022-09-26T14:27:43.267Z,1.80
2022-09-26T14:30:32.428Z,1.50
2022-09-26T14:33:10.495Z,1.08
2022-09-26T14:35:41.311Z,1.25
2022-09-26T14:38:28.910Z,1.20
2022-09-26T14:43:34.337Z,1.63
2022-09-26T14:46:17.124Z,1.85
2022-09-26T14:48:48.352Z,1.60
2022-09-26T14:51:20.258Z,1.52
2022-09-26T14:53:54.719Z,1.98
2022-09-26T14:56:38.726Z,2.25
2022-09-26T14:59:36.649Z,2.40
2022-09-26T15:02:29.122Z,2.25
2022-09-26T15:05:09.404Z,2.97
2022-09-26T15:07:51.890Z,2.58
2022-09-26T15:10:26.312Z,1.90
2022-09-26T15:13:06.829Z,1.55
2022-09-26T15:15:55.746Z,1.98
2022-09-26T15:18:38.062Z,1.80
2022-09-26T15:21:29.423Z,1.80
2022-09-26T15:24:00.490Z,2.00
2022-09-26T15:26:40.183Z,1.95
2022-09-26T15:29:14.895Z,1.55
2022-09-26T15:31:49.312Z,2.05
2022-09-26T15:34:41.805Z,1.90
2022-09-26T15:37:22.689Z,1.73
2022-09-26T15:39:53.430Z,2.70
2022-09-26T15:42:43.484Z,1.60
2022-09-26T15:45:29.593Z,2.00
2022-09-26T15:48:15.919Z,1.80
2022-09-26T15:50:50.085Z,1.67
2022-09-26T15:53:41.653Z,1.60
2022-09-26T15:56:19.046Z,1.75
2022-09-26T15:58:51.453Z,1.67
2022-09-26T16:01:25.390Z,1.45
2022-09-26T16:04:02.102Z,1.85
2022-09-26T16:06:35.772Z,1.70
2022-09-26T16:09:27.326Z,1.25
2022-09-26T16:12:02.202Z,1.40
2022-09-26T16:14:48.849Z,1.25
2022-09-26T16:17:25.702Z,1.50
2022-09-26T16:22:53.287Z,1.85
2022-09-26T16:25:49.804Z,2.38
2022-09-26T16:28:20.726Z,1.83
2022-09-26T16:31:03.006Z,1.45
2022-09-26T16:33:34.392Z,1.42
2022-09-26T16:36:17.073Z,1.50
2022-09-26T16:38:57.476Z,2.10
2022-09-26T16:41:56.779Z,1.63
2022-09-26T16:44:42.739Z,1.70
2022-09-26T16:47:34.307Z,1.70
2022-09-26T16:50:32.989Z,1.60
2022-09-26T16:53:07.965Z,1.77
2022-09-26T16:55:39.190Z,1.88
2022-09-26T16:58:09.593Z,1.60
2022-09-26T17:01:00.112Z,1.50
2022-09-26T17:03:33.331Z,1.08
2022-09-26T17:06:03.944Z,1.60
2022-09-26T17:08:35.610Z,1.25
2022-09-26T17:11:12.664Z,1.20
2022-09-26T17:13:45.547Z,1.20
2022-09-26T17:16:15.918Z,1.83
2022-09-26T17:18:46.581Z,0.90
2022-09-26T17:21:16.737Z,1.25
2022-09-26T17:23:47.210Z,1.85
2022-09-26T17:26:30.971Z,1.17
2022-09-26T17:29:03.177Z,0.95
2022-09-26T17:31:36.882Z,1.55
2022-09-26T17:34:07.576Z,0.98
2022-09-26T17:37:03.543Z,1.92
2022-09-26T17:39:48.936Z,1.23
2022-09-26T17:42:26.683Z,1.10
2022-09-26T17:45:00.939Z,1.05
2022-09-26T17:47:38.032Z,1.27
2022-09-26T17:53:32.736Z,1.30
2022-09-26T17:56:26.773Z,1.10
2022-09-26T17:58:58.600Z,1.08
2022-09-26T18:01:35.734Z,1.10
2022-09-26T18:04:09.145Z,1.23
2022-09-26T18:06:40.241Z,1.15
2022-09-26T18:09:22.389Z,1.17
2022-09-26T18:12:04.879Z,1.20
2022-09-26T18:14:40.772Z,1.30
2022-09-26T18:17:28.071Z,1.15
2022-09-26T18:19:58.245Z,1.25
2022-09-26T18:22:34.516Z,1.20
2022-09-26T18:25:10.447Z,1.15
2022-09-26T18:27:44.254Z,1.87
2022-09-26T18:30:20.286Z,1.42
2022-09-26T18:35:51.629Z,1.40
2022-09-26T18:38:23.757Z,1.40
2022-09-26T18:41:02.171Z,1.25
2022-09-26T18:43:40.471Z,1.30
2022-09-26T18:46:17.519Z,1.30
2022-09-26T18:48:49.493Z,1.95
2022-09-26T18:51:20.717Z,2.38
2022-09-26T18:53:51.301Z,1.73
2022-09-26T18:56:53.813Z,1.42
2022-09-26T18:59:28.293Z,1.55
2022-09-26T19:02:02.634Z,1.25
2022-09-26T19:04:33.731Z,1.80
2022-09-26T19:07:08.031Z,1.25
2022-09-26T19:09:39.570Z,1.30
2022-09-26T19:12:13.175Z,1.05
2022-09-26T19:14:43.430Z,1.35
2022-09-26T19:17:17.208Z,1.10
2022-09-26T19:19:47.536Z,1.40
2022-09-26T19:22:18.917Z,1.25
2022-09-26T19:25:01.983Z,1.00
2022-09-26T19:30:59.942Z,1.55
2022-09-26T19:33:30.374Z,1.20
2022-09-26T19:36:05.848Z,1.38
2022-09-26T19:38:35.945Z,1.30
2022-09-26T19:41:07.001Z,1.60
2022-09-26T19:43:42.782Z,1.40
2022-09-26T19:46:22.919Z,1.35
2022-09-26T19:48:53.722Z,1.35
2022-09-26T19:51:24.041Z,1.30
2022-09-26T19:53:54.555Z,1.42
2022-09-26T19:56:25.140Z,1.02
2022-09-26T19:58:55.918Z,1.08
2022-09-26T20:01:26.543Z,1.05
2022-09-26T20:03:59.846Z,1.48
2022-09-26T20:06:30.431Z,1.23
2022-09-26T20:09:02.024Z,1.30
2022-09-26T20:11:34.799Z,1.13
2022-09-26T20:14:26.325Z,1.50
2022-09-26T20:17:07.700Z,1.50
2022-09-26T20:19:42.344Z,1.20
2022-09-26T20:22:32.222Z,1.20
2022-09-26T20:25:09.891Z,1.33
2022-09-26T20:27:42.704Z,1.20
2022-09-26T20:30:35.020Z,1.50
2022-09-26T20:33:06.336Z,1.20
2022-09-26T20:35:40.328Z,1.80
2022-09-26T20:38:32.548Z,2.00
2022-09-26T20:41:29.437Z,1.20
2022-09-26T20:44:03.769Z,1.25
2022-09-26T20:46:41.125Z,1.85
2022-09-26T20:49:19.396Z,1.02
2022-09-26T20:51:52.197Z,1.13
2022-09-26T20:54:36.424Z,1.25
2022-09-26T20:57:13.498Z,1.50
2022-09-26T20:59:46.801Z,1.40
2022-09-26T21:02:58.951Z,1.50
2022-09-26T21:05:29.587Z,1.10
2022-09-26T21:08:01.394Z,1.50
2022-09-26T21:10:37.089Z,1.77
2022-09-26T21:13:08.470Z,1.55
2022-09-26T21:15:40.173Z,1.13
2022-09-26T21:18:34.865Z,1.20
2022-09-26T21:21:20.164Z,0.98
2022-09-26T21:23:52.423Z,1.10
2022-09-26T21:26:28.330Z,1.10
2022-09-26T21:29:00.191Z,1.02
2022-09-26T21:31:36.184Z,1.00
2022-09-26T21:34:24.623Z,0.90
2022-09-26T21:36:58.500Z,1.13
2022-09-26T21:39:31.425Z,0.93
2022-09-26T21:42:05.581Z,0.80
2022-09-26T21:44:50.939Z,0.90
2022-09-26T21:47:21.553Z,0.95
2022-09-26T21:49:52.020Z,0.88
2022-09-26T21:52:35.614Z,0.80
2022-09-26T21:55:07.975Z,0.82
2022-09-26T21:57:44.565Z,0.90
2022-09-26T22:00:15.614Z,0.80
2022-09-26T22:02:46.137Z,0.65
2022-09-26T22:05:18.777Z,0.60
2022-09-26T22:07:49.221Z,0.77
2022-09-26T22:10:19.548Z,0.80
2022-09-26T22:12:50.143Z,0.70
2022-09-26T22:15:25.916Z,1.25
2022-09-26T22:17:57.190Z,1.05
2022-09-26T22:20:28.024Z,0.80
2022-09-26T22:22:58.273Z,0.77
2022-09-26T22:25:28.508Z,0.70
2022-09-26T22:27:59.105Z,0.80
2022-09-26T22:30:29.340Z,1.10
2022-09-26T22:32:59.965Z,0.60
2022-09-26T22:35:30.608Z,0.77
2022-09-26T22:38:00.780Z,0.70
2022-09-26T22:40:31.496Z,1.15
2022-09-26T22:43:01.934Z,0.75
2022-09-26T22:45:34.702Z,0.70
2022-09-26T22:48:13.360Z,0.70
2022-09-26T22:50:55.616Z,0.80
2022-09-26T22:53:28.468Z,0.68
2022-09-26T22:56:07.156Z,0.70
2022-09-26T22:58:49.548Z,0.90
2022-09-26T23:01:24.580Z,0.57
2022-09-26T23:03:55.411Z,0.57
2022-09-26T23:06:26.841Z,0.63
2022-09-26T23:08:58.257Z,0.65
2022-09-26T23:11:29.599Z,0.70
2022-09-26T23:13:59.811Z,0.95
2022-09-26T23:16:30.176Z,0.77
2022-09-26T23:19:00.558Z,0.50
2022-09-26T23:21:31.469Z,0.50
2022-09-26T23:24:07.493Z,0.40
2022-09-26T23:26:43.104Z,0.57
2022-09-26T23:29:13.807Z,0.50
2022-09-26T23:31:44.103Z,0.50
2022-09-26T23:34:16.952Z,0.38
2022-09-26T23:36:47.220Z,0.32
2022-09-26T23:39:17.593Z,0.50
2022-09-26T23:41:47.901Z,0.40
2022-09-26T23:44:18.037Z,0.47
2022-09-26T23:46:49.684Z,0.40
2022-09-26T23:49:20.361Z,0.50
2022-09-26T23:51:50.523Z,0.50
2022-09-26T23:54:21.104Z,0.50
2022-09-26T23:56:52.478Z,0.40
2022-09-26T23:59:22.781Z,0.43
